BAW449 EHAM-EGLL
Flight info
| Callsign | BAW449 |
|---|---|
| Flight time | 0h 41m |
| Altitude | 24000 |
| Route | IDRID L980 LOGAN |
| Aircraft | A320/M-SDE3FGHIRWY/LB1 |
Departure
| Time | 2026-04-17 11:28 |
|---|---|
| Airport | Amsterdam Airport Schiphol (EHAM) |
Arrival
| Time | 2026-04-17 12:09 |
|---|---|
| Airport | London Heathrow Airport (EGLL) |
| Time | Latitude | Longitude | Altitude | Speed | Heading |
|---|---|---|---|---|---|
| 2026-04-17 11:02 | 52.31059 | 4.76692 | -1 ft | 0 kts | 303° |
| 2026-04-17 11:20 | 52.31049 | 4.76720 | -1 ft | 4 kts | 290° |
| 2026-04-17 11:20 | 52.31043 | 4.76763 | -1 ft | 4 kts | 273° |
| 2026-04-17 11:20 | 52.31041 | 4.76765 | -1 ft | 4 kts | 258° |
| 2026-04-17 11:20 | 52.31027 | 4.76728 | -1 ft | 4 kts | 233° |
| 2026-04-17 11:21 | 52.31008 | 4.76699 | -1 ft | 4 kts | 210° |
| 2026-04-17 11:21 | 52.30998 | 4.76720 | -1 ft | 4 kts | 107° |
| 2026-04-17 11:21 | 52.31000 | 4.76753 | -1 ft | 0 kts | 83° |
| 2026-04-17 11:23 | 52.31008 | 4.76781 | -1 ft | 7 kts | 55° |
| 2026-04-17 11:24 | 52.31064 | 4.76849 | -1 ft | 13 kts | 37° |
| 2026-04-17 11:24 | 52.31082 | 4.77023 | -1 ft | 19 kts | 94° |
| 2026-04-17 11:24 | 52.31072 | 4.77277 | -1 ft | 25 kts | 93° |
| 2026-04-17 11:24 | 52.31026 | 4.77482 | -1 ft | 18 kts | 164° |
| 2026-04-17 11:25 | 52.30891 | 4.77473 | -1 ft | 20 kts | 183° |
| 2026-04-17 11:25 | 52.30743 | 4.77459 | -1 ft | 22 kts | 183° |
| 2026-04-17 11:25 | 52.30599 | 4.77516 | -1 ft | 21 kts | 154° |
| 2026-04-17 11:25 | 52.30504 | 4.77595 | -1 ft | 13 kts | 151° |
| 2026-04-17 11:26 | 52.30414 | 4.77620 | -1 ft | 15 kts | 211° |
| 2026-04-17 11:26 | 52.30391 | 4.77575 | -2 ft | 0 kts | 235° |
| 2026-04-17 11:27 | 52.30377 | 4.77542 | -2 ft | 20 kts | 237° |
| 2026-04-17 11:27 | 52.30167 | 4.76999 | -3 ft | 89 kts | 238° |
| 2026-04-17 11:27 | 52.29735 | 4.75877 | -2 ft | 141 kts | 238° |
| 2026-04-17 11:27 | 52.29180 | 4.74396 | 380 ft | 151 kts | 236° |
| 2026-04-17 11:28 | 52.28649 | 4.72934 | 1141 ft | 148 kts | 239° |
| 2026-04-17 11:28 | 52.28100 | 4.71421 | 1559 ft | 165 kts | 237° |
| 2026-04-17 11:28 | 52.27397 | 4.69765 | 1891 ft | 191 kts | 225° |
| 2026-04-17 11:28 | 52.26362 | 4.68201 | 2322 ft | 215 kts | 224° |
| 2026-04-17 11:29 | 52.25213 | 4.66418 | 2820 ft | 239 kts | 224° |
| 2026-04-17 11:29 | 52.24204 | 4.64227 | 3626 ft | 247 kts | 246° |
| 2026-04-17 11:29 | 52.23628 | 4.61599 | 4582 ft | 250 kts | 250° |
| 2026-04-17 11:29 | 52.23064 | 4.58897 | 5546 ft | 253 kts | 250° |
| 2026-04-17 11:30 | 52.22495 | 4.56164 | 6506 ft | 256 kts | 250° |
| 2026-04-17 11:30 | 52.21923 | 4.53396 | 7378 ft | 259 kts | 250° |
| 2026-04-17 11:30 | 52.21343 | 4.50595 | 8250 ft | 262 kts | 250° |
| 2026-04-17 11:30 | 52.20751 | 4.47760 | 9125 ft | 265 kts | 250° |
| 2026-04-17 11:31 | 52.20151 | 4.44897 | 10011 ft | 268 kts | 250° |
| 2026-04-17 11:31 | 52.19536 | 4.41984 | 10588 ft | 280 kts | 250° |
| 2026-04-17 11:31 | 52.18874 | 4.38865 | 10826 ft | 303 kts | 250° |
| 2026-04-17 11:31 | 52.18171 | 4.35552 | 11346 ft | 313 kts | 250° |
| 2026-04-17 11:32 | 52.17456 | 4.32181 | 12027 ft | 317 kts | 250° |
| 2026-04-17 11:32 | 52.16733 | 4.28761 | 12744 ft | 320 kts | 250° |
| 2026-04-17 11:32 | 52.16003 | 4.25313 | 13474 ft | 323 kts | 250° |
| 2026-04-17 11:32 | 52.15266 | 4.21832 | 14181 ft | 326 kts | 250° |
| 2026-04-17 11:33 | 52.14531 | 4.18365 | 14806 ft | 329 kts | 250° |
| 2026-04-17 11:33 | 52.13778 | 4.14833 | 15424 ft | 332 kts | 251° |
| 2026-04-17 11:33 | 52.13015 | 4.11270 | 16045 ft | 335 kts | 251° |
| 2026-04-17 11:33 | 52.12241 | 4.07672 | 16658 ft | 338 kts | 251° |
| 2026-04-17 11:34 | 52.11458 | 4.04036 | 17276 ft | 341 kts | 251° |
| 2026-04-17 11:34 | 52.10669 | 4.00382 | 17892 ft | 344 kts | 251° |
| 2026-04-17 11:34 | 52.09873 | 3.96685 | 18511 ft | 348 kts | 251° |
| 2026-04-17 11:34 | 52.09069 | 3.92959 | 19068 ft | 351 kts | 251° |
| 2026-04-17 11:35 | 52.08260 | 3.89209 | 19653 ft | 353 kts | 251° |
| 2026-04-17 11:35 | 52.07444 | 3.85434 | 20247 ft | 355 kts | 251° |
| 2026-04-17 11:35 | 52.06620 | 3.81635 | 20846 ft | 357 kts | 251° |
| 2026-04-17 11:35 | 52.05790 | 3.77812 | 21407 ft | 359 kts | 251° |
| 2026-04-17 11:36 | 52.04955 | 3.73968 | 21969 ft | 362 kts | 251° |
| 2026-04-17 11:36 | 52.04113 | 3.70104 | 22523 ft | 364 kts | 251° |
| 2026-04-17 11:36 | 52.03262 | 3.66215 | 23086 ft | 367 kts | 251° |
| 2026-04-17 11:36 | 52.02416 | 3.62355 | 23626 ft | 369 kts | 251° |
| 2026-04-17 11:37 | 52.01550 | 3.58416 | 24064 ft | 371 kts | 251° |
| 2026-04-17 11:37 | 52.00679 | 3.54460 | 24185 ft | 371 kts | 251° |
| 2026-04-17 11:37 | 51.99754 | 3.50564 | 24212 ft | 376 kts | 245° |
| 2026-04-17 11:37 | 51.98374 | 3.46844 | 24216 ft | 393 kts | 236° |
| 2026-04-17 11:38 | 51.96733 | 3.43215 | 24215 ft | 406 kts | 236° |
| 2026-04-17 11:38 | 51.95040 | 3.39482 | 24220 ft | 416 kts | 236° |
| 2026-04-17 11:38 | 51.93304 | 3.35654 | 24220 ft | 426 kts | 236° |
| 2026-04-17 11:38 | 51.92135 | 3.33074 | 24218 ft | 432 kts | 236° |
| 2026-04-17 11:39 | 51.90342 | 3.29123 | 24216 ft | 440 kts | 235° |
| 2026-04-17 11:39 | 51.88514 | 3.25098 | 24214 ft | 446 kts | 235° |
| 2026-04-17 11:39 | 51.86681 | 3.21022 | 24216 ft | 450 kts | 238° |
| 2026-04-17 11:39 | 51.85258 | 3.16515 | 24214 ft | 452 kts | 251° |
| 2026-04-17 11:40 | 51.84557 | 3.11562 | 24223 ft | 453 kts | 263° |
| 2026-04-17 11:40 | 51.84222 | 3.06490 | 24209 ft | 454 kts | 263° |
| 2026-04-17 11:40 | 51.83896 | 3.01411 | 24218 ft | 454 kts | 263° |
| 2026-04-17 11:40 | 51.83570 | 2.96324 | 24216 ft | 454 kts | 263° |
| 2026-04-17 11:41 | 51.83240 | 2.91237 | 24218 ft | 455 kts | 263° |
| 2026-04-17 11:41 | 51.82905 | 2.86151 | 24214 ft | 455 kts | 263° |
| 2026-04-17 11:41 | 51.82570 | 2.81134 | 24214 ft | 455 kts | 263° |
| 2026-04-17 11:41 | 51.82224 | 2.76052 | 24208 ft | 455 kts | 263° |
| 2026-04-17 11:42 | 51.81871 | 2.70968 | 24205 ft | 454 kts | 263° |
| 2026-04-17 11:42 | 51.81520 | 2.65902 | 24201 ft | 454 kts | 263° |
| 2026-04-17 11:42 | 51.81171 | 2.60818 | 24202 ft | 455 kts | 263° |
| 2026-04-17 11:42 | 51.80824 | 2.55739 | 24197 ft | 455 kts | 263° |
| 2026-04-17 11:43 | 51.80476 | 2.50655 | 24194 ft | 455 kts | 263° |
| 2026-04-17 11:43 | 51.80124 | 2.45578 | 24193 ft | 455 kts | 263° |
| 2026-04-17 11:43 | 51.79768 | 2.40501 | 24192 ft | 455 kts | 263° |
| 2026-04-17 11:43 | 51.79409 | 2.35433 | 24194 ft | 455 kts | 263° |
| 2026-04-17 11:44 | 51.79050 | 2.30417 | 24195 ft | 455 kts | 262° |
| 2026-04-17 11:44 | 51.78680 | 2.25342 | 24193 ft | 455 kts | 262° |
| 2026-04-17 11:44 | 51.78313 | 2.20265 | 24192 ft | 455 kts | 263° |
| 2026-04-17 11:44 | 51.77985 | 2.15181 | 24195 ft | 455 kts | 263° |
| 2026-04-17 11:45 | 51.77690 | 2.10088 | 24193 ft | 455 kts | 264° |
| 2026-04-17 11:45 | 51.77410 | 2.04999 | 24192 ft | 455 kts | 264° |
| 2026-04-17 11:45 | 51.77127 | 1.99899 | 24190 ft | 455 kts | 264° |
| 2026-04-17 11:45 | 51.76838 | 1.94812 | 24193 ft | 455 kts | 263° |
| 2026-04-17 11:46 | 51.76541 | 1.89713 | 24192 ft | 455 kts | 263° |
| 2026-04-17 11:46 | 51.76234 | 1.84620 | 24191 ft | 456 kts | 263° |
| 2026-04-17 11:46 | 51.75920 | 1.79531 | 24192 ft | 456 kts | 263° |
| 2026-04-17 11:46 | 51.75599 | 1.74441 | 24191 ft | 456 kts | 263° |
| 2026-04-17 11:47 | 51.75276 | 1.69364 | 24194 ft | 451 kts | 263° |
| 2026-04-17 11:47 | 51.74969 | 1.64533 | 24083 ft | 428 kts | 263° |
| 2026-04-17 11:47 | 51.74675 | 1.59854 | 23844 ft | 410 kts | 262° |
| 2026-04-17 11:47 | 51.74393 | 1.55372 | 23653 ft | 394 kts | 262° |
| 2026-04-17 11:48 | 51.74121 | 1.51062 | 23511 ft | 378 kts | 262° |
| 2026-04-17 11:48 | 51.73856 | 1.46914 | 23278 ft | 367 kts | 262° |
| 2026-04-17 11:48 | 51.73592 | 1.42841 | 22869 ft | 362 kts | 262° |
| 2026-04-17 11:48 | 51.73332 | 1.38850 | 22135 ft | 355 kts | 262° |
| 2026-04-17 11:49 | 51.73077 | 1.34960 | 21250 ft | 351 kts | 262° |
| 2026-04-17 11:49 | 51.72821 | 1.31080 | 20645 ft | 344 kts | 262° |
| 2026-04-17 11:49 | 51.72567 | 1.27251 | 20178 ft | 342 kts | 262° |
| 2026-04-17 11:49 | 51.72314 | 1.23451 | 19715 ft | 339 kts | 262° |
| 2026-04-17 11:50 | 51.72062 | 1.19680 | 19254 ft | 337 kts | 262° |
| 2026-04-17 11:50 | 51.71813 | 1.15935 | 18794 ft | 335 kts | 262° |
| 2026-04-17 11:50 | 51.71563 | 1.12206 | 18312 ft | 333 kts | 262° |
| 2026-04-17 11:50 | 51.71312 | 1.08505 | 17839 ft | 330 kts | 262° |
| 2026-04-17 11:51 | 51.71060 | 1.04843 | 17392 ft | 327 kts | 262° |
| 2026-04-17 11:51 | 51.70811 | 1.01221 | 17078 ft | 319 kts | 261° |
| 2026-04-17 11:51 | 51.70577 | 0.97786 | 16861 ft | 299 kts | 261° |
| 2026-04-17 11:51 | 51.70356 | 0.94550 | 16343 ft | 290 kts | 261° |
| 2026-04-17 11:52 | 51.70135 | 0.91333 | 15953 ft | 288 kts | 261° |
| 2026-04-17 11:52 | 51.69911 | 0.88124 | 15601 ft | 287 kts | 261° |
| 2026-04-17 11:52 | 51.69688 | 0.84930 | 15245 ft | 286 kts | 261° |
| 2026-04-17 11:52 | 51.69465 | 0.81743 | 14885 ft | 286 kts | 261° |
| 2026-04-17 11:53 | 51.69243 | 0.78565 | 14519 ft | 285 kts | 261° |
| 2026-04-17 11:53 | 51.69018 | 0.75388 | 14159 ft | 284 kts | 261° |
| 2026-04-17 11:53 | 51.68793 | 0.72228 | 13774 ft | 284 kts | 261° |
| 2026-04-17 11:53 | 51.68569 | 0.69077 | 13387 ft | 283 kts | 261° |
| 2026-04-17 11:54 | 51.68345 | 0.65938 | 12991 ft | 282 kts | 261° |
| 2026-04-17 11:54 | 51.68119 | 0.62837 | 12614 ft | 276 kts | 259° |
| 2026-04-17 11:54 | 51.67494 | 0.60001 | 12260 ft | 274 kts | 237° |
| 2026-04-17 11:54 | 51.66358 | 0.57556 | 11895 ft | 273 kts | 232° |
| 2026-04-17 11:55 | 51.65156 | 0.55182 | 11545 ft | 272 kts | 231° |
| 2026-04-17 11:55 | 51.63954 | 0.52838 | 11203 ft | 271 kts | 231° |
| 2026-04-17 11:55 | 51.62752 | 0.50505 | 10831 ft | 270 kts | 231° |
| 2026-04-17 11:55 | 51.61549 | 0.48179 | 10485 ft | 270 kts | 231° |
| 2026-04-17 11:56 | 51.60346 | 0.45866 | 10149 ft | 269 kts | 231° |
| 2026-04-17 11:56 | 51.59142 | 0.43557 | 9784 ft | 269 kts | 231° |
| 2026-04-17 11:56 | 51.57942 | 0.41252 | 9414 ft | 268 kts | 231° |
| 2026-04-17 11:56 | 51.56744 | 0.38951 | 9051 ft | 268 kts | 231° |
| 2026-04-17 11:57 | 51.55561 | 0.36677 | 8680 ft | 260 kts | 231° |
| 2026-04-17 11:57 | 51.54423 | 0.34488 | 8314 ft | 250 kts | 231° |
| 2026-04-17 11:57 | 51.53341 | 0.32407 | 7962 ft | 241 kts | 231° |
| 2026-04-17 11:57 | 51.52284 | 0.30382 | 7615 ft | 233 kts | 231° |
| 2026-04-17 11:58 | 51.51263 | 0.28419 | 7267 ft | 225 kts | 231° |
| 2026-04-17 11:58 | 51.50275 | 0.26514 | 6920 ft | 219 kts | 231° |
| 2026-04-17 11:58 | 51.49314 | 0.24651 | 6584 ft | 213 kts | 234° |
| 2026-04-17 11:58 | 51.48633 | 0.22595 | 6222 ft | 206 kts | 249° |
| 2026-04-17 11:59 | 51.48169 | 0.20446 | 5856 ft | 201 kts | 251° |
| 2026-04-17 11:59 | 51.47757 | 0.18391 | 5529 ft | 192 kts | 251° |
| 2026-04-17 11:59 | 51.47361 | 0.16367 | 5168 ft | 184 kts | 252° |
| 2026-04-17 11:59 | 51.47223 | 0.14355 | 4811 ft | 180 kts | 265° |
| 2026-04-17 12:00 | 51.47184 | 0.12413 | 4445 ft | 173 kts | 264° |
| 2026-04-17 12:00 | 51.47146 | 0.10546 | 4162 ft | 161 kts | 264° |
| 2026-04-17 12:00 | 51.47110 | 0.08795 | 3907 ft | 155 kts | 263° |
| 2026-04-17 12:00 | 51.47073 | 0.07078 | 3659 ft | 153 kts | 263° |
| 2026-04-17 12:01 | 51.47036 | 0.05373 | 3407 ft | 153 kts | 263° |
| 2026-04-17 12:01 | 51.46999 | 0.03672 | 3145 ft | 152 kts | 264° |
| 2026-04-17 12:01 | 51.46962 | 0.01973 | 2887 ft | 152 kts | 264° |
| 2026-04-17 12:01 | 51.46797 | 0.00297 | 2597 ft | 153 kts | 256° |
| 2026-04-17 12:02 | 51.46649 | -0.01377 | 2517 ft | 153 kts | 259° |
| 2026-04-17 12:02 | 51.46582 | -0.03069 | 2513 ft | 152 kts | 263° |
| 2026-04-17 12:02 | 51.46554 | -0.04770 | 2513 ft | 153 kts | 264° |
| 2026-04-17 12:02 | 51.46542 | -0.06478 | 2511 ft | 153 kts | 264° |
| 2026-04-17 12:03 | 51.46537 | -0.08173 | 2513 ft | 154 kts | 264° |
| 2026-04-17 12:03 | 51.46536 | -0.09874 | 2506 ft | 152 kts | 265° |
| 2026-04-17 12:03 | 51.46535 | -0.11570 | 2507 ft | 152 kts | 264° |
| 2026-04-17 12:03 | 51.46534 | -0.13272 | 2512 ft | 153 kts | 264° |
| 2026-04-17 12:04 | 51.46533 | -0.14993 | 2510 ft | 155 kts | 264° |
| 2026-04-17 12:04 | 51.46533 | -0.16714 | 2509 ft | 150 kts | 265° |
| 2026-04-17 12:04 | 51.46534 | -0.18308 | 2508 ft | 137 kts | 265° |
| 2026-04-17 12:04 | 51.46533 | -0.19813 | 2518 ft | 134 kts | 264° |
| 2026-04-17 12:05 | 51.46532 | -0.21289 | 2521 ft | 133 kts | 262° |
| 2026-04-17 12:05 | 51.46530 | -0.22778 | 2504 ft | 134 kts | 262° |
| 2026-04-17 12:05 | 51.46528 | -0.24266 | 2402 ft | 133 kts | 263° |
| 2026-04-17 12:05 | 51.46527 | -0.25748 | 2258 ft | 133 kts | 264° |
| 2026-04-17 12:06 | 51.46525 | -0.27228 | 2098 ft | 132 kts | 264° |
| 2026-04-17 12:06 | 51.46523 | -0.28700 | 1922 ft | 132 kts | 263° |
| 2026-04-17 12:06 | 51.46521 | -0.30178 | 1744 ft | 132 kts | 263° |
| 2026-04-17 12:06 | 51.46519 | -0.31643 | 1564 ft | 131 kts | 264° |
| 2026-04-17 12:07 | 51.46516 | -0.33095 | 1388 ft | 131 kts | 263° |
| 2026-04-17 12:07 | 51.46513 | -0.34545 | 1217 ft | 130 kts | 264° |
| 2026-04-17 12:07 | 51.46511 | -0.35989 | 1033 ft | 133 kts | 263° |
| 2026-04-17 12:07 | 51.46503 | -0.37460 | 850 ft | 131 kts | 263° |
| 2026-04-17 12:08 | 51.46512 | -0.38926 | 654 ft | 131 kts | 262° |
| 2026-04-17 12:08 | 51.46488 | -0.40391 | 502 ft | 130 kts | 262° |
| 2026-04-17 12:08 | 51.46495 | -0.41855 | 333 ft | 131 kts | 263° |
| 2026-04-17 12:08 | 51.46495 | -0.43321 | 146 ft | 131 kts | 265° |
| 2026-04-17 12:09 | 51.46484 | -0.44718 | 92 ft | 110 kts | 270° |
| 2026-04-17 12:09 | 51.46485 | -0.45659 | 88 ft | 55 kts | 269° |
| 2026-04-17 12:09 | 51.46482 | -0.46231 | 88 ft | 43 kts | 270° |
| 2026-04-17 12:09 | 51.46515 | -0.46642 | 89 ft | 34 kts | 291° |
| 2026-04-17 12:10 | 51.46571 | -0.46829 | 91 ft | 8 kts | 313° |
| 2026-04-17 12:10 | 51.46594 | -0.46844 | 88 ft | 0 kts | 339° |
| 2026-04-17 12:10 | 51.46596 | -0.46846 | 88 ft | 0 kts | 337° |
| 2026-04-17 12:11 | 51.46632 | -0.46870 | 91 ft | 11 kts | 330° |
| 2026-04-17 12:11 | 51.46656 | -0.47016 | 90 ft | 16 kts | 270° |
| 2026-04-17 12:12 | 51.46654 | -0.47441 | 87 ft | 22 kts | 270° |
| 2026-04-17 12:12 | 51.46653 | -0.47695 | 87 ft | 24 kts | 270° |
| 2026-04-17 12:12 | 51.46652 | -0.47974 | 87 ft | 26 kts | 270° |
| 2026-04-17 12:12 | 51.46651 | -0.48230 | 87 ft | 22 kts | 270° |
| 2026-04-17 12:13 | 51.46659 | -0.48438 | 87 ft | 15 kts | 299° |
| 2026-04-17 12:13 | 51.46766 | -0.48473 | 87 ft | 17 kts | 360° |
| 2026-04-17 12:13 | 51.46821 | -0.48473 | 87 ft | 0 kts | 0° |
| 2026-04-17 12:13 | 51.46827 | -0.48473 | 87 ft | 4 kts | 0° |
| 2026-04-17 12:14 | 51.46872 | -0.48504 | 88 ft | 11 kts | 298° |
| 2026-04-17 12:14 | 51.46876 | -0.48671 | 87 ft | 19 kts | 270° |
| 2026-04-17 12:14 | 51.46881 | -0.48856 | 88 ft | 8 kts | 309° |
| 2026-04-17 12:14 | 51.46911 | -0.48861 | 87 ft | 5 kts | 359° |
| 2026-04-17 12:15 | 51.46925 | -0.48861 | 87 ft | 1 kts | 359° |
| 2026-04-17 12:15 | 51.46929 | -0.48861 | 87 ft | 0 kts | 360° |